ADDS METAR Data INFO
IDs: Format: Raw Decoded Include TAF

Data at: 2255 UTC 22 Jun 2018

KWJF 222156Z 28005KT 10SM CLR 39/M07 A2985 RMK AO2 SLP082 T03941072
KWJF 222056Z 12006KT 10SM CLR 39/M06 A2988 RMK AO2 SLP088 T03891056 58021
KWJF 221956Z VRB06KT 10SM CLR 38/M06 A2990 RMK AO2 SLP098 T03831056
KWJF 221856Z 12006KT 10SM CLR 37/M02 A2992 RMK AO2 SLP106 T03721022
KWJF 221756Z AUTO 10SM CLR 35/M01 A2994 RMK AO2 SLP113 T03501006 10350 20206 58006
KWJF 221709Z 07005KT FEW002 34/00 A2995 RMK AO2 T03390000 $
KWJF 221656Z VRB03KT 10SM CLR 33/M01 A2996 RMK AO2 SLP118 T03331006
KWJF 221556Z 00000KT 10SM CLR 30/03 A2996 RMK AO2 SLP122 T03000033
KWJF 221456Z 12003KT 10SM CLR 26/04 A2996 RMK AO2 SLP122 T02610044 53007
KWJF 221356Z 20004KT 10SM CLR 21/04 A2995 RMK AO2 SLP120 T02110039
KWJF 221256Z AUTO 27008KT 10SM CLR 21/06 A2994 RMK AO2 SLP114 T02060056
KWJF 221156Z AUTO 28005KT 10SM CLR 21/06 A2994 RMK AO2 SLP114 T02110061 10261 20211 51003
KWJF 221056Z AUTO 26007KT 10SM CLR 23/06 A2994 RMK AO2 SLP112 T02280061
KWJF 220956Z AUTO 28010KT 10SM CLR 24/06 A2995 RMK AO2 SLP114 T02390061
KWJF 220856Z AUTO 26016KT 10SM CLR 25/07 A2993 RMK AO2 SLP106 T02500067 58004
KWJF 220756Z AUTO 29012KT 10SM CLR 25/06 A2995 RMK AO2 SLP113 T02500061 404000178
KWJF 220656Z AUTO 27012KT 10SM CLR 26/07 A2994 RMK AO2 SLP113 T02560072
KWJF 220556Z AUTO 25015KT 10SM CLR 26/07 A2994 RMK AO2 SLP112 T02610067 10372 20261 51007
KWJF 220456Z AUTO 24016KT 10SM CLR 27/06 A2994 RMK AO2 PK WND 26026/0432 SLP114 T02720056
KWJF 220356Z 25015KT 10SM CLR 28/06 A2993 RMK AO2 PK WND 25026/0307 SLP111 T02830056
KWJF 220256Z 26022KT 10SM CLR 30/06 A2992 RMK AO2 PK WND 27030/0200 SLP110 T03000056 53009
KWJF 220156Z 26023G28KT 10SM CLR 34/03 A2990 RMK AO2 PK WND 27028/0148 SLP103 T03390028
KWJF 220056Z 24017KT 10SM CLR 36/03 A2989 RMK AO2 PK WND 24026/0023 SLP099 T03610028
KWJF 212356Z 23019G25KT 10SM CLR 37/06 A2989 RMK AO2 PK WND 24026/2335 SLP097 T03720056 10400 20367 58005
KWJF 212256Z 24018KT 10SM CLR 38/04 A2990 RMK AO2 SLP098 T03830044
KWJF 212156Z 23017G24KT 10SM CLR 39/03 A2990 RMK AO2 SLP098 T03890028
KWJF 212056Z 24012G22KT 10SM CLR 40/01 A2991 RMK AO2 SLP100 T04000006 58009
KWJF 211956Z 25009G17KT 10SM CLR 38/02 A2992 RMK AO2 SLP104 T03830022
KWJF 211856Z 25008KT 10SM CLR 37/04 A2993 RMK AO2 SLP109 T03720039
KWJF 211756Z 25005KT 10SM CLR 36/04 A2994 RMK AO2 SLP110 T03610039 10361 20178 58010
KWJF 211656Z 23006KT 10SM CLR 33/06 A2995 RMK AO2 SLP115 T03280061
KWJF 211556Z 00000KT 10SM CLR 28/07 A2996 RMK AO2 SLP123 T02830067
KWJF 211456Z 13003KT 10SM CLR 24/06 A2997 RMK AO2 SLP125 T02440056 51007
KWJF 211356Z 00000KT 10SM CLR 21/07 A2997 RMK AO2 SLP125 T02060067
KWJF 211256Z AUTO 30004KT 10SM CLR 18/07 A2995 RMK AO2 SLP122 T01780067
KWJF 211156Z AUTO 24005KT 10SM CLR 21/08 A2995 RMK AO2 SLP116 T02060078 10267 20200 53001
KWJF 211056Z AUTO 29008KT 10SM CLR 23/09 A2994 RMK AO2 SLP114 T02280094